createdAt,value
2022-08-18T00:01:11.863Z,6.30
2022-08-18T00:03:56.899Z,5.82
2022-08-18T00:06:30.202Z,6.15
2022-08-18T00:09:00.969Z,5.90
2022-08-18T00:11:41.026Z,6.20
2022-08-18T00:14:14.562Z,5.80
2022-08-18T00:16:50.791Z,5.80
2022-08-18T00:19:18.917Z,5.57
2022-08-18T00:21:48.310Z,5.30
2022-08-18T00:24:16.565Z,5.60
2022-08-18T00:26:44.792Z,5.68
2022-08-18T00:29:16.743Z,6.07
2022-08-18T00:31:44.818Z,5.90
2022-08-18T00:34:12.853Z,6.13
2022-08-18T00:36:41.161Z,5.93
2022-08-18T00:39:10.528Z,6.00
2022-08-18T00:41:38.602Z,6.50
2022-08-18T00:44:06.627Z,6.07
2022-08-18T00:46:37.117Z,5.70
2022-08-18T00:49:05.909Z,6.40
2022-08-18T00:51:39.244Z,5.82
2022-08-18T00:54:12.885Z,6.75
2022-08-18T00:56:45.214Z,6.30
2022-08-18T00:59:21.905Z,6.00
2022-08-18T01:01:51.995Z,6.55
2022-08-18T01:04:25.351Z,5.68
2022-08-18T01:06:57.898Z,6.25
2022-08-18T01:09:27.773Z,6.40
2022-08-18T01:11:56.464Z,6.65
2022-08-18T01:14:25.048Z,5.47
2022-08-18T01:17:10.451Z,5.82
2022-08-18T01:19:57.446Z,5.80
2022-08-18T01:22:30.504Z,6.22
2022-08-18T01:25:19.515Z,6.47
2022-08-18T01:27:47.876Z,6.05
2022-08-18T01:30:19.138Z,6.78
2022-08-18T01:32:47.212Z,6.43
2022-08-18T01:35:18.246Z,6.55
2022-08-18T01:37:46.282Z,6.63
2022-08-18T01:41:23.806Z,6.43
2022-08-18T01:43:06.728Z,6.82
2022-08-18T01:45:35.362Z,6.57
2022-08-18T01:48:04.998Z,6.97
2022-08-18T01:50:35.136Z,7.13
2022-08-18T01:53:05.541Z,7.15
2022-08-18T01:55:35.704Z,6.70
2022-08-18T01:58:04.806Z,7.35
2022-08-18T02:00:33.322Z,6.35
2022-08-18T02:03:03.088Z,6.28
2022-08-18T02:05:34.956Z,7.18
2022-08-18T02:08:03.660Z,6.57
2022-08-18T02:10:32.024Z,7.20
2022-08-18T02:13:01.705Z,6.80
2022-08-18T02:15:29.699Z,6.93
2022-08-18T02:17:57.765Z,7.53
2022-08-18T02:20:26.485Z,7.82
2022-08-18T02:22:54.562Z,7.63
2022-08-18T02:25:23.127Z,6.63
2022-08-18T02:27:51.527Z,6.78
2022-08-18T02:30:21.309Z,6.80
2022-08-18T02:32:49.595Z,7.22
2022-08-18T02:35:17.687Z,7.70
2022-08-18T02:37:47.951Z,7.07
2022-08-18T02:40:17.194Z,7.43
2022-08-18T02:42:46.610Z,6.90
2022-08-18T02:45:15.484Z,6.72
2022-08-18T02:47:46.044Z,7.50
2022-08-18T02:50:16.800Z,7.20
2022-08-18T02:52:44.871Z,7.15
2022-08-18T02:55:13.453Z,7.05
2022-08-18T02:57:44.225Z,7.20
2022-08-18T03:00:15.567Z,7.25
2022-08-18T03:02:49.101Z,7.68
2022-08-18T03:05:17.510Z,7.20
2022-08-18T03:07:46.337Z,7.55
2022-08-18T03:10:33.095Z,7.90
2022-08-18T03:13:02.491Z,7.35
2022-08-18T03:15:30.727Z,6.93
2022-08-18T03:18:01.172Z,6.80
2022-08-18T03:20:30.432Z,7.95
2022-08-18T03:22:59.691Z,7.70
2022-08-18T03:25:33.878Z,7.32
2022-08-18T03:28:03.960Z,7.35
2022-08-18T03:30:32.102Z,7.55
2022-08-18T03:33:01.613Z,7.45
2022-08-18T03:35:30.311Z,7.65
2022-08-18T03:38:00.225Z,8.07
2022-08-18T03:40:28.324Z,7.50
2022-08-18T03:42:56.696Z,7.55
2022-08-18T03:45:27.474Z,7.65
2022-08-18T03:47:55.847Z,7.28
2022-08-18T03:50:25.676Z,7.75
2022-08-18T03:52:54.287Z,7.57
2022-08-18T03:55:24.634Z,7.72
2022-08-18T03:57:53.191Z,7.25
2022-08-18T04:00:21.926Z,7.50
2022-08-18T04:02:50.030Z,7.40
2022-08-18T04:05:18.207Z,7.95
2022-08-18T04:07:47.667Z,8.35
2022-08-18T04:10:19.172Z,8.02
2022-08-18T04:12:47.997Z,7.80
2022-08-18T04:15:17.528Z,8.10
2022-08-18T04:17:56.203Z,7.65
2022-08-18T04:20:32.950Z,7.97
2022-08-18T04:23:02.779Z,7.40
2022-08-18T04:25:33.115Z,8.25
2022-08-18T04:28:03.549Z,7.75
2022-08-18T04:30:32.315Z,8.10
2022-08-18T04:33:02.517Z,6.93
2022-08-18T04:35:32.065Z,7.32
2022-08-18T04:38:00.260Z,8.27
2022-08-18T04:40:30.218Z,8.52
2022-08-18T04:42:58.418Z,8.40
2022-08-18T04:45:26.755Z,8.20
2022-08-18T04:47:54.889Z,8.20
2022-08-18T04:50:24.565Z,8.10
2022-08-18T04:53:09.939Z,8.00
2022-08-18T04:55:39.321Z,7.63
2022-08-18T04:58:07.853Z,7.78
2022-08-18T05:00:35.917Z,9.27
2022-08-18T05:03:03.945Z,8.98
2022-08-18T05:05:32.160Z,7.78
2022-08-18T05:08:00.218Z,8.70
2022-08-18T05:10:28.368Z,8.90
2022-08-18T05:12:57.809Z,8.68
2022-08-18T05:15:26.398Z,7.82
2022-08-18T05:17:54.542Z,8.70
2022-08-18T05:20:23.229Z,8.88
2022-08-18T05:22:51.426Z,8.30
2022-08-18T05:25:19.619Z,8.98
2022-08-18T05:27:47.776Z,8.30
2022-08-18T05:30:17.271Z,9.05
2022-08-18T05:32:49.906Z,8.98
2022-08-18T05:35:23.658Z,9.55
2022-08-18T05:38:04.691Z,9.80
2022-08-18T05:40:32.878Z,10.05
2022-08-18T05:43:02.450Z,9.23
2022-08-18T05:45:34.052Z,10.43
2022-08-18T05:48:02.132Z,9.73
2022-08-18T05:50:35.418Z,9.35
2022-08-18T05:53:13.336Z,9.25
2022-08-18T05:56:09.317Z,9.95
2022-08-18T05:58:43.120Z,9.93
2022-08-18T06:01:17.031Z,9.80
2022-08-18T06:03:50.432Z,9.65
2022-08-18T06:06:21.346Z,9.40
2022-08-18T06:08:56.907Z,10.70
2022-08-18T06:11:25.807Z,9.95
2022-08-18T06:13:59.118Z,10.07
2022-08-18T06:16:42.300Z,9.95
2022-08-18T06:19:26.458Z,10.05
2022-08-18T06:22:02.070Z,10.05
2022-08-18T06:24:36.029Z,10.20
2022-08-18T06:27:15.362Z,10.07
2022-08-18T06:29:58.947Z,10.20
2022-08-18T06:32:43.615Z,9.80
2022-08-18T06:35:19.316Z,9.80
2022-08-18T06:38:12.085Z,9.98
2022-08-18T06:40:40.197Z,9.77
2022-08-18T06:43:15.904Z,9.73
2022-08-18T06:45:50.480Z,9.85
2022-08-18T06:48:26.128Z,9.93
2022-08-18T06:51:00.841Z,9.75
2022-08-18T06:53:55.050Z,9.88
2022-08-18T06:56:27.359Z,9.85
2022-08-18T06:58:56.078Z,9.60
2022-08-18T07:01:25.971Z,10.60
2022-08-18T07:03:58.275Z,10.43
2022-08-18T07:06:31.142Z,10.98
2022-08-18T07:09:21.719Z,10.13
2022-08-18T07:12:07.070Z,10.52
2022-08-18T07:14:45.318Z,10.35
2022-08-18T07:17:15.463Z,10.75
2022-08-18T07:19:45.067Z,9.88
2022-08-18T07:22:17.000Z,9.75
2022-08-18T07:24:47.263Z,10.10
2022-08-18T07:27:18.056Z,9.90
2022-08-18T07:30:01.885Z,10.25
2022-08-18T07:32:36.979Z,10.52
2022-08-18T07:35:09.350Z,10.55
2022-08-18T07:37:44.086Z,10.18
2022-08-18T07:40:21.130Z,10.68
2022-08-18T07:43:01.117Z,10.13
2022-08-18T07:45:37.133Z,10.05
2022-08-18T07:48:37.562Z,9.48
2022-08-18T07:51:13.641Z,9.05
2022-08-18T07:53:56.737Z,9.20
2022-08-18T07:56:37.761Z,9.30
2022-08-18T07:59:16.255Z,9.13
2022-08-18T08:01:50.715Z,8.85
2022-08-18T08:04:31.663Z,9.95
2022-08-18T08:07:23.935Z,10.25
2022-08-18T08:10:03.225Z,8.82
2022-08-18T08:12:40.219Z,9.15
2022-08-18T08:15:18.765Z,9.02
2022-08-18T08:18:04.519Z,9.27
2022-08-18T08:20:40.307Z,8.18
2022-08-18T08:23:19.425Z,8.30
2022-08-18T08:25:57.638Z,7.93
2022-08-18T08:28:39.407Z,7.18
2022-08-18T08:34:08.449Z,7.18
2022-08-18T08:36:40.291Z,7.75
2022-08-18T08:39:15.425Z,7.50
2022-08-18T08:41:49.987Z,7.05
2022-08-18T08:44:23.279Z,8.00
2022-08-18T08:46:57.770Z,7.15
2022-08-18T08:49:46.208Z,6.45
2022-08-18T08:52:30.748Z,7.05
2022-08-18T08:55:06.561Z,7.07
2022-08-18T08:57:38.612Z,6.75
2022-08-18T09:00:11.071Z,5.65
2022-08-18T09:03:13.709Z,5.90
2022-08-18T09:05:53.431Z,5.32
2022-08-18T09:08:49.179Z,4.45
2022-08-18T09:11:45.931Z,4.57
2022-08-18T09:14:50.670Z,4.25
2022-08-18T09:17:44.165Z,4.35
2022-08-18T09:20:49.181Z,4.03
2022-08-18T09:23:22.071Z,4.18
2022-08-18T09:25:53.268Z,3.35
2022-08-18T09:28:40.970Z,3.92
2022-08-18T09:31:20.325Z,3.70
2022-08-18T09:34:10.897Z,3.38
2022-08-18T09:36:56.585Z,4.03
2022-08-18T09:39:54.919Z,3.40
2022-08-18T09:42:48.356Z,4.70
2022-08-18T09:45:58.764Z,3.55
2022-08-18T09:48:32.808Z,3.35
2022-08-18T09:51:24.628Z,3.60
2022-08-18T09:54:21.463Z,4.07
2022-08-18T09:57:24.385Z,4.28
2022-08-18T10:00:28.315Z,4.28
2022-08-18T10:03:25.874Z,4.47
2022-08-18T10:06:12.370Z,4.40
2022-08-18T10:09:18.122Z,3.80
2022-08-18T10:12:09.885Z,4.30
2022-08-18T10:15:09.394Z,4.22
2022-08-18T10:18:00.878Z,4.72
2022-08-18T10:20:42.612Z,4.25
2022-08-18T10:23:11.421Z,4.53
2022-08-18T10:25:42.595Z,4.50
2022-08-18T10:28:13.068Z,4.20
2022-08-18T10:34:16.426Z,4.47
2022-08-18T10:36:53.459Z,4.55
2022-08-18T10:39:24.736Z,5.13
2022-08-18T10:41:59.841Z,4.60
2022-08-18T10:44:31.322Z,7.43
2022-08-18T10:47:01.404Z,4.97
2022-08-18T10:49:33.222Z,4.38
2022-08-18T10:55:48.827Z,4.80
2022-08-18T10:58:40.972Z,4.35
2022-08-18T11:01:27.153Z,5.35
2022-08-18T11:04:27.493Z,5.10
2022-08-18T11:07:12.063Z,4.78
2022-08-18T11:09:56.880Z,5.40
2022-08-18T11:12:58.010Z,4.97
2022-08-18T11:15:38.814Z,5.13
2022-08-18T11:18:30.974Z,4.70
2022-08-18T11:21:23.683Z,4.70
2022-08-18T11:24:10.014Z,5.00
2022-08-18T11:26:42.389Z,4.97
2022-08-18T11:29:20.747Z,5.65
2022-08-18T11:31:52.608Z,5.03
2022-08-18T11:34:33.221Z,4.57
2022-08-18T11:37:04.796Z,4.80
2022-08-18T11:39:49.240Z,4.43
2022-08-18T11:42:21.904Z,5.28
2022-08-18T11:44:55.938Z,4.63
2022-08-18T11:47:27.997Z,5.18
2022-08-18T11:50:08.384Z,5.20
2022-08-18T11:55:38.721Z,5.00
2022-08-18T11:58:12.910Z,4.95
2022-08-18T12:01:01.669Z,4.78
2022-08-18T12:03:39.273Z,4.70
2022-08-18T12:06:23.521Z,5.97
2022-08-18T12:08:59.382Z,5.13
2022-08-18T12:11:31.040Z,4.90
2022-08-18T12:16:54.054Z,4.57
2022-08-18T12:19:24.466Z,4.72
2022-08-18T12:21:54.851Z,5.50
2022-08-18T12:24:29.390Z,5.35
2022-08-18T12:27:12.210Z,5.88
2022-08-18T12:29:52.273Z,4.82
2022-08-18T12:32:46.580Z,4.95
2022-08-18T12:35:12.367Z,5.25
2022-08-18T12:40:33.000Z,4.90
2022-08-18T12:43:01.639Z,5.50
2022-08-18T12:45:32.436Z,4.72
2022-08-18T12:48:02.569Z,5.40
2022-08-18T12:53:29.022Z,5.50
2022-08-18T12:55:59.239Z,4.88
2022-08-18T12:58:29.262Z,5.40
2022-08-18T13:00:58.814Z,5.70
2022-08-18T13:03:27.353Z,5.22
2022-08-18T13:05:57.476Z,5.35
2022-08-18T13:08:30.710Z,5.25
2022-08-18T13:11:14.462Z,5.10
2022-08-18T13:14:43.470Z,5.22
2022-08-18T13:17:14.900Z,5.13
2022-08-18T13:22:54.986Z,5.15
2022-08-18T13:25:32.101Z,5.40
2022-08-18T13:28:02.066Z,5.10
2022-08-18T13:30:32.411Z,4.70
2022-08-18T13:33:34.039Z,4.82
2022-08-18T13:35:54.589Z,5.88
2022-08-18T13:38:27.145Z,5.85
2022-08-18T13:40:58.913Z,5.20
2022-08-18T13:43:32.059Z,5.50
2022-08-18T13:46:01.315Z,5.38
2022-08-18T13:48:31.456Z,5.47
2022-08-18T13:51:01.737Z,5.07
2022-08-18T13:53:32.052Z,5.28
2022-08-18T13:56:00.325Z,5.70
2022-08-18T13:58:29.849Z,6.13
2022-08-18T14:01:22.944Z,5.30
2022-08-18T14:03:50.130Z,5.10
2022-08-18T14:06:22.587Z,6.20
2022-08-18T14:08:52.335Z,4.90
2022-08-18T14:11:21.651Z,5.68
2022-08-18T14:13:49.890Z,5.40
2022-08-18T14:16:19.515Z,5.28
2022-08-18T14:19:10.424Z,5.68
2022-08-18T14:22:00.801Z,5.32
2022-08-18T14:24:49.015Z,4.18
2022-08-18T14:27:17.592Z,4.10
2022-08-18T14:29:48.646Z,3.88
2022-08-18T14:32:28.681Z,4.38
2022-08-18T14:35:34.517Z,4.50
2022-08-18T14:37:48.971Z,4.68
2022-08-18T14:40:20.213Z,4.72
2022-08-18T14:42:53.969Z,5.05
2022-08-18T14:45:28.096Z,4.82
2022-08-18T14:48:06.667Z,5.00
2022-08-18T14:50:37.471Z,4.57
2022-08-18T14:53:06.382Z,5.18
2022-08-18T14:55:34.665Z,5.15
2022-08-18T14:58:07.227Z,5.38
2022-08-18T15:00:49.911Z,5.10
2022-08-18T15:03:28.368Z,5.70
2022-08-18T15:06:04.468Z,4.88
2022-08-18T15:08:34.420Z,5.88
2022-08-18T15:11:06.198Z,5.80
2022-08-18T15:13:41.647Z,5.55
2022-08-18T15:16:13.689Z,5.88
2022-08-18T15:18:42.273Z,5.30
2022-08-18T15:21:35.418Z,5.20
2022-08-18T15:24:25.156Z,5.90
2022-08-18T15:26:58.228Z,5.75
2022-08-18T15:29:34.819Z,5.63
2022-08-18T15:32:10.109Z,5.57
2022-08-18T15:34:46.959Z,5.40
2022-08-18T15:37:24.067Z,5.60
2022-08-18T15:40:02.634Z,5.85
2022-08-18T15:42:31.075Z,6.20
2022-08-18T15:45:11.926Z,5.72
2022-08-18T15:47:42.491Z,5.43
2022-08-18T15:50:21.840Z,5.65
2022-08-18T15:52:58.115Z,6.50
2022-08-18T15:55:29.565Z,5.10
2022-08-18T15:58:04.800Z,5.63
2022-08-18T16:00:42.249Z,5.43
2022-08-18T16:03:14.567Z,5.63
2022-08-18T16:05:48.324Z,5.75
2022-08-18T16:08:20.685Z,5.50
2022-08-18T16:10:49.487Z,6.30
2022-08-18T16:13:19.227Z,5.53
2022-08-18T16:15:48.356Z,5.90
2022-08-18T16:18:18.274Z,6.43
2022-08-18T16:20:46.826Z,5.95
2022-08-18T16:23:15.572Z,6.60
2022-08-18T16:25:45.795Z,7.28
2022-08-18T16:28:13.992Z,6.70
2022-08-18T16:30:42.363Z,5.97
2022-08-18T16:33:10.470Z,5.90
2022-08-18T16:35:38.634Z,6.20
2022-08-18T16:38:08.738Z,6.68
2022-08-18T16:40:38.056Z,6.20
2022-08-18T16:43:07.904Z,7.05
2022-08-18T16:45:38.301Z,6.55
2022-08-18T16:48:08.948Z,6.50
2022-08-18T16:50:38.367Z,6.60
2022-08-18T16:53:07.098Z,6.45
2022-08-18T16:55:35.296Z,7.50
2022-08-18T16:58:21.042Z,7.78
2022-08-18T17:01:08.008Z,6.05
2022-08-18T17:03:53.576Z,6.90
2022-08-18T17:06:22.039Z,6.60
2022-08-18T17:08:50.471Z,5.72
2022-08-18T17:11:21.216Z,6.00
2022-08-18T17:13:50.976Z,6.60
2022-08-18T17:16:22.197Z,6.43
2022-08-18T17:18:50.381Z,6.07
2022-08-18T17:21:27.488Z,6.28
2022-08-18T17:23:56.370Z,6.40
2022-08-18T17:26:38.377Z,6.05
2022-08-18T17:29:17.012Z,6.32
2022-08-18T17:31:53.210Z,7.05
2022-08-18T17:34:24.217Z,6.55
2022-08-18T17:36:55.189Z,6.35
2022-08-18T17:39:29.285Z,6.72
2022-08-18T17:42:14.776Z,7.00
2022-08-18T17:44:52.088Z,7.60
2022-08-18T17:47:27.031Z,7.30
2022-08-18T17:50:28.390Z,7.28
2022-08-18T17:53:05.199Z,7.32
2022-08-18T17:55:39.639Z,7.25
2022-08-18T17:58:14.486Z,6.47
2022-08-18T18:00:42.670Z,6.20
2022-08-18T18:03:13.423Z,6.40
2022-08-18T18:05:44.109Z,6.25
2022-08-18T18:08:12.246Z,6.57
2022-08-18T18:11:02.364Z,6.20
2022-08-18T18:13:32.718Z,6.32
2022-08-18T18:16:03.305Z,5.93
2022-08-18T18:18:41.847Z,6.32
2022-08-18T18:21:21.607Z,6.07
2022-08-18T18:23:53.002Z,6.30
2022-08-18T18:26:28.342Z,6.05
2022-08-18T18:29:29.105Z,6.05
2022-08-18T18:32:02.637Z,5.53
2022-08-18T18:34:39.607Z,5.65
2022-08-18T18:37:25.506Z,5.40
2022-08-18T18:39:58.290Z,5.68
2022-08-18T18:42:29.670Z,5.82
2022-08-18T18:45:00.633Z,5.40
2022-08-18T18:47:42.630Z,6.10
2022-08-18T18:50:18.476Z,5.60
2022-08-18T18:52:59.774Z,5.55
2022-08-18T18:55:31.602Z,5.70
2022-08-18T18:58:18.448Z,5.50
2022-08-18T19:00:53.937Z,5.82
2022-08-18T19:03:29.555Z,6.10
2022-08-18T19:06:17.530Z,5.68
2022-08-18T19:08:54.762Z,5.97
2022-08-18T19:11:31.829Z,6.45
2022-08-18T19:14:07.344Z,6.03
2022-08-18T19:16:42.051Z,6.20
2022-08-18T19:19:36.891Z,5.88
2022-08-18T19:22:14.959Z,6.72
2022-08-18T19:24:53.506Z,5.32
2022-08-18T19:27:27.952Z,5.95
2022-08-18T19:30:06.031Z,6.35
2022-08-18T19:32:43.858Z,6.35
2022-08-18T19:35:19.555Z,6.53
2022-08-18T19:38:07.897Z,6.47
2022-08-18T19:40:45.578Z,6.18
2022-08-18T19:43:23.715Z,6.07
2022-08-18T19:45:57.795Z,6.55
2022-08-18T19:48:32.582Z,6.70
2022-08-18T19:51:06.351Z,6.35
2022-08-18T19:53:55.226Z,6.25
2022-08-18T19:56:38.276Z,7.30
2022-08-18T19:59:24.445Z,6.05
2022-08-18T20:02:05.775Z,5.93
2022-08-18T20:04:51.950Z,6.55
2022-08-18T20:07:46.872Z,6.45
2022-08-18T20:10:38.378Z,6.95
2022-08-18T20:13:26.359Z,6.53
2022-08-18T20:16:13.790Z,7.28
2022-08-18T20:18:44.338Z,6.95
2022-08-18T20:21:46.469Z,7.05
2022-08-18T20:24:32.326Z,6.78
2022-08-18T20:27:34.169Z,6.60
2022-08-18T20:30:27.161Z,6.70
2022-08-18T20:33:36.408Z,6.68
2022-08-18T20:36:14.173Z,7.35
2022-08-18T20:38:45.643Z,6.75
2022-08-18T20:41:32.851Z,6.82
2022-08-18T20:44:29.883Z,7.05
2022-08-18T20:47:07.505Z,7.00
2022-08-18T20:49:46.401Z,6.88
2022-08-18T20:52:30.087Z,7.40
2022-08-18T20:55:11.372Z,6.50
2022-08-18T20:57:41.470Z,6.85
2022-08-18T21:00:15.765Z,6.63
2022-08-18T21:03:06.452Z,6.88
2022-08-18T21:05:39.320Z,6.50
2022-08-18T21:08:20.276Z,6.70
2022-08-18T21:10:51.910Z,6.93
2022-08-18T21:13:30.123Z,7.43
2022-08-18T21:16:00.305Z,7.43
2022-08-18T21:18:29.409Z,7.22
2022-08-18T21:21:00.297Z,7.05
2022-08-18T21:23:32.486Z,7.55
2022-08-18T21:26:06.740Z,7.40
2022-08-18T21:28:38.822Z,7.63
2022-08-18T21:31:42.176Z,7.30
2022-08-18T21:34:14.691Z,8.23
2022-08-18T21:36:52.158Z,7.50
2022-08-18T21:39:21.276Z,7.50
2022-08-18T21:41:51.893Z,8.00
2022-08-18T21:44:24.361Z,7.80
2022-08-18T21:47:05.755Z,7.65
2022-08-18T21:49:34.138Z,7.55
2022-08-18T21:52:02.814Z,7.82
2022-08-18T21:54:34.576Z,6.85
2022-08-18T21:57:24.500Z,7.80
2022-08-18T22:00:13.270Z,7.80
2022-08-18T22:02:43.082Z,7.57
2022-08-18T22:05:12.366Z,7.47
2022-08-18T22:07:47.908Z,7.90
2022-08-18T22:10:44.871Z,7.88
2022-08-18T22:13:39.770Z,7.30
2022-08-18T22:16:29.882Z,8.27
2022-08-18T22:19:26.051Z,7.50
2022-08-18T22:22:00.597Z,8.13
2022-08-18T22:24:36.249Z,7.32
2022-08-18T22:27:09.557Z,8.45
2022-08-18T22:29:45.892Z,7.97
2022-08-18T22:32:14.602Z,7.13
2022-08-18T22:34:44.438Z,7.85
2022-08-18T22:37:15.594Z,8.57
2022-08-18T22:39:50.584Z,8.13
2022-08-18T22:42:20.739Z,8.00
2022-08-18T22:44:49.573Z,8.27
2022-08-18T22:47:18.047Z,8.30
2022-08-18T22:49:48.108Z,8.43
2022-08-18T22:52:29.827Z,7.90
2022-08-18T22:54:59.152Z,7.63
2022-08-18T22:57:28.899Z,8.40
2022-08-18T22:59:58.116Z,7.70
2022-08-18T23:02:27.520Z,7.97
2022-08-18T23:04:57.029Z,8.02
2022-08-18T23:07:25.173Z,7.43
2022-08-18T23:09:53.308Z,8.10
2022-08-18T23:12:21.445Z,7.45
2022-08-18T23:14:49.618Z,8.00
2022-08-18T23:17:17.968Z,8.02
2022-08-18T23:19:47.182Z,7.68
2022-08-18T23:22:17.050Z,7.93
2022-08-18T23:24:45.162Z,7.93
2022-08-18T23:27:13.251Z,8.23
2022-08-18T23:29:41.529Z,7.75
2022-08-18T23:32:09.612Z,8.80
2022-08-18T23:34:37.856Z,7.55
2022-08-18T23:37:06.439Z,8.15
2022-08-18T23:39:38.962Z,11.77
2022-08-18T23:42:10.192Z,9.45
2022-08-18T23:44:38.328Z,10.23
2022-08-18T23:47:06.982Z,8.88
2022-08-18T23:49:36.544Z,9.25
2022-08-18T23:52:05.745Z,9.68
2022-08-18T23:54:36.502Z,11.10
2022-08-18T23:57:04.767Z,11.05
2022-08-18T23:59:32.919Z,10.80
